createdAt,value
2023-05-06T00:02:29.648Z,1.33
2023-05-06T00:07:31.966Z,1.13
2023-05-06T00:12:34.173Z,1.77
2023-05-06T00:17:36.373Z,2.45
2023-05-06T00:22:38.691Z,1.27
2023-05-06T00:27:40.800Z,2.38
2023-05-06T00:32:43.006Z,1.10
2023-05-06T00:37:49.186Z,1.88
2023-05-06T00:42:51.359Z,3.10
2023-05-06T00:47:53.810Z,1.58
2023-05-06T00:52:58.183Z,2.03
2023-05-06T00:58:01.155Z,1.27
2023-05-06T01:03:03.466Z,1.27
2023-05-06T01:08:11.690Z,1.10
2023-05-06T01:13:36.721Z,1.55
2023-05-06T01:18:39.173Z,0.93
2023-05-06T01:23:58.492Z,2.15
2023-05-06T01:29:02.497Z,1.50
2023-05-06T01:34:11.166Z,1.88
2023-05-06T01:39:18.959Z,0.68
2023-05-06T01:44:23.542Z,0.73
2023-05-06T01:49:27.604Z,4.00
2023-05-06T01:54:29.674Z,3.90
2023-05-06T01:59:31.683Z,2.97
2023-05-06T02:04:33.978Z,1.27
2023-05-06T02:09:36.314Z,2.25
2023-05-06T02:14:38.998Z,1.52
2023-05-06T02:19:41.438Z,1.48
2023-05-06T02:24:43.562Z,3.97
2023-05-06T02:29:46.824Z,3.40
2023-05-06T02:34:48.934Z,1.38
2023-05-06T02:39:51.060Z,4.63
2023-05-06T02:44:53.066Z,2.40
2023-05-06T02:49:55.302Z,3.03
2023-05-06T02:54:57.418Z,3.97
2023-05-06T02:59:59.631Z,6.00
2023-05-06T03:05:04.560Z,3.50
2023-05-06T03:10:08.139Z,1.38
2023-05-06T03:15:12.924Z,1.30
2023-05-06T03:20:15.665Z,2.65
2023-05-06T03:25:24.376Z,2.28
2023-05-06T03:30:27.612Z,1.23
2023-05-06T03:35:33.627Z,1.20
2023-05-06T03:40:36.702Z,2.85
2023-05-06T03:45:39.321Z,2.40
2023-05-06T03:50:42.236Z,0.73
2023-05-06T03:55:44.462Z,2.40
2023-05-06T04:00:47.870Z,1.10
2023-05-06T04:05:51.007Z,2.53
2023-05-06T04:10:57.750Z,2.00
2023-05-06T04:16:04.280Z,0.75
2023-05-06T04:21:13.670Z,1.45
2023-05-06T04:26:18.358Z,1.08
2023-05-06T04:31:21.749Z,0.60
2023-05-06T04:36:25.850Z,0.63
2023-05-06T04:41:48.954Z,2.17
2023-05-06T04:46:56.181Z,0.60
2023-05-06T04:51:58.430Z,0.60
2023-05-06T04:57:01.817Z,0.88
2023-05-06T05:02:04.958Z,0.93
2023-05-06T05:07:07.707Z,0.63
2023-05-06T05:12:10.901Z,1.77
2023-05-06T05:17:17.248Z,1.88
2023-05-06T05:22:21.447Z,1.08
2023-05-06T05:27:23.867Z,2.33
2023-05-06T05:32:27.039Z,0.70
2023-05-06T05:37:29.125Z,0.50
2023-05-06T05:42:33.821Z,0.93
2023-05-06T05:47:41.045Z,0.60
2023-05-06T05:52:43.552Z,0.45
2023-05-06T05:57:46.169Z,0.88
2023-05-06T06:02:48.790Z,0.65
2023-05-06T06:07:55.006Z,1.77
2023-05-06T06:12:59.254Z,4.95
2023-05-06T06:18:04.350Z,1.88
2023-05-06T06:23:06.833Z,1.80
2023-05-06T06:28:10.184Z,1.23
2023-05-06T06:33:12.687Z,1.65
2023-05-06T06:38:15.607Z,1.85
2023-05-06T06:43:19.939Z,2.28
2023-05-06T06:48:31.823Z,2.72
2023-05-06T06:53:33.839Z,2.92
2023-05-06T06:58:35.838Z,0.65
2023-05-06T07:08:39.750Z,0.60
2023-05-06T07:13:41.877Z,1.30
2023-05-06T07:23:46.042Z,0.60
2023-05-06T07:28:48.210Z,1.23
2023-05-06T07:33:50.480Z,1.25
2023-05-06T07:43:54.507Z,0.52
2023-05-06T07:53:58.642Z,0.77
2023-05-06T08:04:02.950Z,2.08
2023-05-06T08:09:05.467Z,1.17
2023-05-06T08:14:07.557Z,2.13
2023-05-06T08:24:13.677Z,1.60
2023-05-06T08:29:16.013Z,2.20
2023-05-06T08:34:20.289Z,2.58
2023-05-06T08:39:22.268Z,1.35
2023-05-06T08:44:25.424Z,0.93
2023-05-06T08:49:27.890Z,0.88
2023-05-06T08:54:33.495Z,4.85
2023-05-06T08:59:36.369Z,1.60
2023-05-06T09:04:38.713Z,0.93
2023-05-06T09:09:40.967Z,1.35
2023-05-06T09:14:43.374Z,1.38
2023-05-06T09:19:45.475Z,2.15
2023-05-06T09:24:53.113Z,1.30
2023-05-06T09:30:09.441Z,1.92
2023-05-06T09:35:13.692Z,2.78
2023-05-06T09:40:15.953Z,3.55
2023-05-06T09:45:18.091Z,4.03
2023-05-06T09:50:22.223Z,2.13
2023-05-06T09:55:27.238Z,2.00
2023-05-06T10:00:31.450Z,1.50
2023-05-06T10:05:34.135Z,3.17
2023-05-06T10:10:37.960Z,1.60
2023-05-06T10:15:41.153Z,1.45
2023-05-06T10:20:44.468Z,2.00
2023-05-06T10:25:49.396Z,1.42
2023-05-06T10:30:53.309Z,1.38
2023-05-06T10:36:24.063Z,0.68
2023-05-06T10:41:28.444Z,3.03
2023-05-06T10:46:30.859Z,3.90
2023-05-06T10:51:33.899Z,2.22
2023-05-06T10:56:40.127Z,5.13
2023-05-06T11:01:44.450Z,0.90
2023-05-06T11:06:49.318Z,5.25
2023-05-06T11:11:52.013Z,3.97
2023-05-06T11:16:56.926Z,1.98
2023-05-06T11:22:01.202Z,2.67
2023-05-06T11:27:03.377Z,0.80
2023-05-06T11:42:10.561Z,2.00
2023-05-06T11:47:12.554Z,2.10
2023-05-06T11:57:16.597Z,4.00
2023-05-06T12:07:20.851Z,2.10
2023-05-06T12:12:24.185Z,4.80
2023-05-06T12:17:26.540Z,1.35
2023-05-06T12:22:28.672Z,1.77
2023-05-06T12:32:33.497Z,0.85
2023-05-06T12:37:35.689Z,5.50
2023-05-06T12:42:37.888Z,3.47
2023-05-06T12:47:40.106Z,2.70
2023-05-06T12:52:45.259Z,1.55
2023-05-06T12:57:48.474Z,7.90
2023-05-06T13:02:50.733Z,3.25
2023-05-06T13:07:54.082Z,2.60
2023-05-06T13:12:56.219Z,1.92
2023-05-06T13:17:58.415Z,4.10
2023-05-06T13:28:02.608Z,5.00
2023-05-06T13:33:05.264Z,3.97
2023-05-06T13:38:07.594Z,4.30
2023-05-06T13:43:10.131Z,2.40
2023-05-06T13:48:13.173Z,1.80
2023-05-06T13:53:15.588Z,2.30
2023-05-06T13:58:17.859Z,1.58
2023-05-06T14:03:20.013Z,3.58
2023-05-06T14:13:24.157Z,4.28
2023-05-06T14:18:29.593Z,3.08
2023-05-06T14:23:32.612Z,5.40
2023-05-06T14:28:34.615Z,2.15
2023-05-06T14:38:39.734Z,4.07
2023-05-06T14:48:44.553Z,2.03
2023-05-06T14:53:46.851Z,3.13
2023-05-06T14:58:48.872Z,2.80
2023-05-06T15:03:53.224Z,3.65
2023-05-06T15:08:55.480Z,7.90
2023-05-06T15:18:59.501Z,6.07
2023-05-06T15:24:01.806Z,3.17
2023-05-06T15:29:04.037Z,2.10
2023-05-06T15:34:09.842Z,2.70
2023-05-06T15:39:12.869Z,3.00
2023-05-06T15:44:16.206Z,3.72
2023-05-06T15:49:47.487Z,3.90
2023-05-06T15:54:41.165Z,5.43
2023-05-06T15:59:43.364Z,1.50
2023-05-06T16:04:45.545Z,1.75
2023-05-06T16:09:47.765Z,3.45
2023-05-06T16:19:51.597Z,3.53
2023-05-06T16:29:55.820Z,2.20
2023-05-06T16:34:59.434Z,4.75
2023-05-06T16:40:01.692Z,3.35
2023-05-06T16:45:07.636Z,5.03
2023-05-06T16:50:10.747Z,3.30
2023-05-06T16:55:13.041Z,2.22
2023-05-06T17:00:16.582Z,1.30
2023-05-06T17:05:20.640Z,1.55
2023-05-06T17:10:29.206Z,3.35
2023-05-06T17:15:31.439Z,4.03
2023-05-06T17:20:38.050Z,1.75
2023-05-06T17:25:49.991Z,9.05
2023-05-06T17:35:53.931Z,2.92
2023-05-06T17:45:57.907Z,4.75
2023-05-06T17:51:01.878Z,4.90
2023-05-06T17:56:04.713Z,3.58
2023-05-06T18:01:06.808Z,4.75
2023-05-06T18:06:08.869Z,2.80
2023-05-06T18:16:13.107Z,8.15
2023-05-06T18:21:15.578Z,2.58
2023-05-06T18:26:35.001Z,5.95
2023-05-06T18:31:40.638Z,3.95
2023-05-06T18:36:42.848Z,5.88
2023-05-06T18:41:44.902Z,3.35
2023-05-06T18:46:46.951Z,4.40
2023-05-06T18:51:49.046Z,4.70
2023-05-06T19:01:56.996Z,4.57
2023-05-06T19:06:59.100Z,7.88
2023-05-06T19:12:01.111Z,5.63
2023-05-06T19:17:04.766Z,4.85
2023-05-06T19:22:07.009Z,5.68
2023-05-06T19:27:09.177Z,5.30
2023-05-06T19:32:11.309Z,5.72
2023-05-06T19:37:13.402Z,3.75
2023-05-06T19:42:15.913Z,5.38
2023-05-06T19:47:17.984Z,7.13
2023-05-06T19:52:20.072Z,3.72
2023-05-06T19:57:22.219Z,6.05
2023-05-06T20:02:24.470Z,6.85
2023-05-06T20:07:26.670Z,5.80
2023-05-06T20:12:29.053Z,7.22
2023-05-06T20:17:31.156Z,5.82
2023-05-06T20:22:33.170Z,5.75
2023-05-06T20:27:35.364Z,5.80
2023-05-06T20:32:39.074Z,6.63
2023-05-06T20:37:41.467Z,6.15
2023-05-06T20:42:43.518Z,5.32
2023-05-06T20:47:45.726Z,8.02
2023-05-06T20:52:47.841Z,9.15
2023-05-06T20:57:50.096Z,6.65
2023-05-06T21:02:52.336Z,7.72
2023-05-06T21:07:54.511Z,4.05
2023-05-06T21:12:56.584Z,5.35
2023-05-06T21:17:58.737Z,4.20
2023-05-06T21:23:00.971Z,6.22
2023-05-06T21:28:05.553Z,5.25
2023-05-06T21:33:10.994Z,5.63
2023-05-06T21:38:13.131Z,4.18
2023-05-06T21:43:17.957Z,5.45
2023-05-06T21:48:20.039Z,5.00
2023-05-06T21:53:22.058Z,6.07
2023-05-06T21:58:24.132Z,8.23
2023-05-06T22:03:27.786Z,11.13
2023-05-06T22:08:30.118Z,5.88
2023-05-06T22:13:32.351Z,7.63
2023-05-06T22:18:36.098Z,6.75
2023-05-06T22:23:40.680Z,7.53
2023-05-06T22:28:42.705Z,8.13
2023-05-06T22:33:44.787Z,11.38
2023-05-06T22:38:47.186Z,6.30
2023-05-06T22:43:49.173Z,7.38
2023-05-06T22:48:51.286Z,7.95
2023-05-06T22:53:53.398Z,7.70
2023-05-06T22:58:55.424Z,8.10
2023-05-06T23:03:59.072Z,9.07
2023-05-06T23:09:02.249Z,9.70
2023-05-06T23:14:04.680Z,8.43
2023-05-06T23:19:06.816Z,9.02
2023-05-06T23:24:09.070Z,8.02
2023-05-06T23:29:11.139Z,8.43
2023-05-06T23:34:13.304Z,6.32
2023-05-06T23:39:15.442Z,9.98
2023-05-06T23:44:17.547Z,10.30
2023-05-06T23:49:19.783Z,7.30
2023-05-06T23:54:21.836Z,12.52
2023-05-06T23:59:23.903Z,9.57
